sensor_id;sensor_type;location;lat;lon;timestamp;temperature;humidity
3912;DHT22;1971;51.778;10.330;2022-07-17T00:00:52;8.80;1.00
3912;DHT22;1971;51.778;10.330;2022-07-17T00:03:29;8.70;1.00
3912;DHT22;1971;51.778;10.330;2022-07-17T00:06:12;8.60;1.00
3912;DHT22;1971;51.778;10.330;2022-07-17T00:08:49;8.60;1.00
3912;DHT22;1971;51.778;10.330;2022-07-17T00:11:31;8.50;1.00
3912;DHT22;1971;51.778;10.330;2022-07-17T00:14:08;8.50;1.00
3912;DHT22;1971;51.778;10.330;2022-07-17T00:16:52;8.40;1.00
3912;DHT22;1971;51.778;10.330;2022-07-17T00:19:31;8.30;1.00
3912;DHT22;1971;51.778;10.330;2022-07-17T00:22:13;8.30;1.00
3912;DHT22;1971;51.778;10.330;2022-07-17T00:24:49;8.30;1.00
3912;DHT22;1971;51.778;10.330;2022-07-17T00:27:31;8.20;1.00
3912;DHT22;1971;51.778;10.330;2022-07-17T00:30:09;8.00;1.00
3912;DHT22;1971;51.778;10.330;2022-07-17T00:32:48;7.90;1.00
3912;DHT22;1971;51.778;10.330;2022-07-17T00:35:31;7.90;1.00
3912;DHT22;1971;51.778;10.330;2022-07-17T00:38:07;7.80;1.00
3912;DHT22;1971;51.778;10.330;2022-07-17T00:40:49;7.70;1.00
3912;DHT22;1971;51.778;10.330;2022-07-17T00:43:25;7.70;1.00
3912;DHT22;1971;51.778;10.330;2022-07-17T00:46:08;7.70;1.00
3912;DHT22;1971;51.778;10.330;2022-07-17T00:48:47;7.60;1.00
3912;DHT22;1971;51.778;10.330;2022-07-17T00:51:30;7.40;1.00
3912;DHT22;1971;51.778;10.330;2022-07-17T00:54:06;7.30;1.00
3912;DHT22;1971;51.778;10.330;2022-07-17T00:56:49;7.30;1.00
3912;DHT22;1971;51.778;10.330;2022-07-17T00:59:27;7.20;1.00
3912;DHT22;1971;51.778;10.330;2022-07-17T01:02:10;7.10;1.00
3912;DHT22;1971;51.778;10.330;2022-07-17T01:04:50;6.90;1.00
3912;DHT22;1971;51.778;10.330;2022-07-17T01:07:33;6.80;1.00
3912;DHT22;1971;51.778;10.330;2022-07-17T01:10:10;7.00;1.00
3912;DHT22;1971;51.778;10.330;2022-07-17T01:12:53;6.90;1.00
3912;DHT22;1971;51.778;10.330;2022-07-17T01:15:23;7.00;1.00
3912;DHT22;1971;51.778;10.330;2022-07-17T01:18:06;6.80;1.00
3912;DHT22;1971;51.778;10.330;2022-07-17T01:20:48;7.00;1.00
3912;DHT22;1971;51.778;10.330;2022-07-17T01:23:27;6.70;1.00
3912;DHT22;1971;51.778;10.330;2022-07-17T01:26:10;7.00;1.00
3912;DHT22;1971;51.778;10.330;2022-07-17T01:28:47;6.70;1.00
3912;DHT22;1971;51.778;10.330;2022-07-17T01:31:29;7.10;1.00
3912;DHT22;1971;51.778;10.330;2022-07-17T01:34:06;6.80;1.00
3912;DHT22;1971;51.778;10.330;2022-07-17T01:36:48;7.00;1.00
3912;DHT22;1971;51.778;10.330;2022-07-17T01:39:27;6.90;1.00
3912;DHT22;1971;51.778;10.330;2022-07-17T01:42:16;6.90;1.00
3912;DHT22;1971;51.778;10.330;2022-07-17T01:44:53;6.50;1.00
3912;DHT22;1971;51.778;10.330;2022-07-17T01:47:36;6.50;1.00
3912;DHT22;1971;51.778;10.330;2022-07-17T01:50:14;6.90;1.00
3912;DHT22;1971;51.778;10.330;2022-07-17T01:52:56;6.70;1.00
3912;DHT22;1971;51.778;10.330;2022-07-17T01:55:34;6.70;1.00
3912;DHT22;1971;51.778;10.330;2022-07-17T01:58:17;6.50;1.00
3912;DHT22;1971;51.778;10.330;2022-07-17T02:00:53;6.70;1.00
3912;DHT22;1971;51.778;10.330;2022-07-17T02:03:30;6.30;1.00
3912;DHT22;1971;51.778;10.330;2022-07-17T02:06:12;6.10;1.00
3912;DHT22;1971;51.778;10.330;2022-07-17T02:08:48;6.20;1.00
3912;DHT22;1971;51.778;10.330;2022-07-17T02:11:33;6.20;1.00
3912;DHT22;1971;51.778;10.330;2022-07-17T02:14:10;6.10;1.00
3912;DHT22;1971;51.778;10.330;2022-07-17T02:16:52;6.10;1.00
3912;DHT22;1971;51.778;10.330;2022-07-17T02:19:29;5.70;1.00
3912;DHT22;1971;51.778;10.330;2022-07-17T02:22:11;6.00;1.00
3912;DHT22;1971;51.778;10.330;2022-07-17T02:24:47;5.80;1.00
3912;DHT22;1971;51.778;10.330;2022-07-17T02:27:33;6.10;1.00
3912;DHT22;1971;51.778;10.330;2022-07-17T02:30:12;6.20;1.00
3912;DHT22;1971;51.778;10.330;2022-07-17T02:32:54;6.20;1.00
3912;DHT22;1971;51.778;10.330;2022-07-17T02:35:31;6.30;1.00
3912;DHT22;1971;51.778;10.330;2022-07-17T02:38:13;6.30;1.00
3912;DHT22;1971;51.778;10.330;2022-07-17T02:40:50;6.20;1.00
3912;DHT22;1971;51.778;10.330;2022-07-17T02:43:34;6.10;1.00
3912;DHT22;1971;51.778;10.330;2022-07-17T02:46:11;6.40;1.00
3912;DHT22;1971;51.778;10.330;2022-07-17T02:48:48;6.70;1.00
3912;DHT22;1971;51.778;10.330;2022-07-17T02:51:30;6.30;1.00
3912;DHT22;1971;51.778;10.330;2022-07-17T02:54:06;6.30;1.00
3912;DHT22;1971;51.778;10.330;2022-07-17T02:56:48;6.40;1.00
3912;DHT22;1971;51.778;10.330;2022-07-17T02:59:26;6.40;1.00
3912;DHT22;1971;51.778;10.330;2022-07-17T03:02:09;6.50;1.00
3912;DHT22;1971;51.778;10.330;2022-07-17T03:04:45;6.60;1.00
3912;DHT22;1971;51.778;10.330;2022-07-17T03:07:27;6.00;1.00
3912;DHT22;1971;51.778;10.330;2022-07-17T03:10:04;5.80;1.00
3912;DHT22;1971;51.778;10.330;2022-07-17T03:12:47;5.90;1.00
3912;DHT22;1971;51.778;10.330;2022-07-17T03:15:25;5.90;1.00
3912;DHT22;1971;51.778;10.330;2022-07-17T03:18:08;5.90;1.00
3912;DHT22;1971;51.778;10.330;2022-07-17T03:20:44;6.20;1.00
3912;DHT22;1971;51.778;10.330;2022-07-17T03:23:26;5.90;1.00
3912;DHT22;1971;51.778;10.330;2022-07-17T03:26:03;6.00;1.00
3912;DHT22;1971;51.778;10.330;2022-07-17T03:28:39;5.90;1.00
3912;DHT22;1971;51.778;10.330;2022-07-17T03:31:23;5.80;1.00
3912;DHT22;1971;51.778;10.330;2022-07-17T03:34:00;5.60;1.00
3912;DHT22;1971;51.778;10.330;2022-07-17T03:36:42;5.50;1.00
3912;DHT22;1971;51.778;10.330;2022-07-17T03:39:20;5.60;1.00
3912;DHT22;1971;51.778;10.330;2022-07-17T03:42:02;5.70;1.00
3912;DHT22;1971;51.778;10.330;2022-07-17T03:44:38;5.90;1.00
3912;DHT22;1971;51.778;10.330;2022-07-17T03:47:22;5.60;1.00
3912;DHT22;1971;51.778;10.330;2022-07-17T03:49:59;5.60;1.00
3912;DHT22;1971;51.778;10.330;2022-07-17T03:52:41;5.90;1.00
3912;DHT22;1971;51.778;10.330;2022-07-17T03:55:18;5.80;1.00
3912;DHT22;1971;51.778;10.330;2022-07-17T03:58:00;6.00;1.00
3912;DHT22;1971;51.778;10.330;2022-07-17T04:00:36;5.90;1.00
3912;DHT22;1971;51.778;10.330;2022-07-17T04:03:20;6.00;1.00
3912;DHT22;1971;51.778;10.330;2022-07-17T04:05:57;6.10;1.00
3912;DHT22;1971;51.778;10.330;2022-07-17T04:08:39;6.00;1.00
3912;DHT22;1971;51.778;10.330;2022-07-17T04:11:15;6.10;1.00
3912;DHT22;1971;51.778;10.330;2022-07-17T04:13:53;6.20;1.00
3912;DHT22;1971;51.778;10.330;2022-07-17T04:16:35;6.00;1.00
3912;DHT22;1971;51.778;10.330;2022-07-17T04:19:13;6.00;1.00
3912;DHT22;1971;51.778;10.330;2022-07-17T04:21:56;6.20;1.00
3912;DHT22;1971;51.778;10.330;2022-07-17T04:24:32;6.10;1.00
3912;DHT22;1971;51.778;10.330;2022-07-17T04:27:14;6.50;1.00
3912;DHT22;1971;51.778;10.330;2022-07-17T04:29:51;6.90;1.00
3912;DHT22;1971;51.778;10.330;2022-07-17T04:32:33;6.90;1.00
3912;DHT22;1971;51.778;10.330;2022-07-17T04:35:11;7.20;1.00
3912;DHT22;1971;51.778;10.330;2022-07-17T04:37:54;7.30;1.00
3912;DHT22;1971;51.778;10.330;2022-07-17T04:40:38;7.60;1.00
3912;DHT22;1971;51.778;10.330;2022-07-17T04:43:20;8.10;1.00
3912;DHT22;1971;51.778;10.330;2022-07-17T04:45:56;8.40;1.00
3912;DHT22;1971;51.778;10.330;2022-07-17T04:48:38;8.70;1.00
3912;DHT22;1971;51.778;10.330;2022-07-17T04:51:17;9.00;1.00
3912;DHT22;1971;51.778;10.330;2022-07-17T04:53:54;9.20;1.00
3912;DHT22;1971;51.778;10.330;2022-07-17T04:56:36;9.40;1.00
3912;DHT22;1971;51.778;10.330;2022-07-17T04:59:12;9.60;1.00
3912;DHT22;1971;51.778;10.330;2022-07-17T05:01:54;9.80;1.00
3912;DHT22;1971;51.778;10.330;2022-07-17T05:04:30;10.00;1.00
3912;DHT22;1971;51.778;10.330;2022-07-17T05:07:15;10.10;1.00
3912;DHT22;1971;51.778;10.330;2022-07-17T05:09:51;10.30;1.00
3912;DHT22;1971;51.778;10.330;2022-07-17T05:12:33;10.40;1.00
3912;DHT22;1971;51.778;10.330;2022-07-17T05:15:09;11.00;1.00
3912;DHT22;1971;51.778;10.330;2022-07-17T05:17:51;11.10;1.00
3912;DHT22;1971;51.778;10.330;2022-07-17T05:20:27;11.20;1.00
3912;DHT22;1971;51.778;10.330;2022-07-17T05:23:11;11.30;1.00
3912;DHT22;1971;51.778;10.330;2022-07-17T05:25:48;11.50;1.00
3912;DHT22;1971;51.778;10.330;2022-07-17T05:28:30;11.80;1.00
3912;DHT22;1971;51.778;10.330;2022-07-17T05:31:10;12.10;1.00
3912;DHT22;1971;51.778;10.330;2022-07-17T05:33:52;12.30;1.00
3912;DHT22;1971;51.778;10.330;2022-07-17T05:36:29;12.10;1.00
3912;DHT22;1971;51.778;10.330;2022-07-17T05:39:08;12.20;1.00
3912;DHT22;1971;51.778;10.330;2022-07-17T05:41:54;12.40;1.00
3912;DHT22;1971;51.778;10.330;2022-07-17T05:44:36;12.70;1.00
3912;DHT22;1971;51.778;10.330;2022-07-17T05:47:13;12.80;1.00
3912;DHT22;1971;51.778;10.330;2022-07-17T05:49:49;12.80;1.00
3912;DHT22;1971;51.778;10.330;2022-07-17T05:52:31;12.90;1.00
3912;DHT22;1971;51.778;10.330;2022-07-17T05:55:10;13.00;1.00
3912;DHT22;1971;51.778;10.330;2022-07-17T05:57:52;13.10;1.00
3912;DHT22;1971;51.778;10.330;2022-07-17T06:00:28;13.20;1.00
3912;DHT22;1971;51.778;10.330;2022-07-17T06:03:10;13.20;1.00
3912;DHT22;1971;51.778;10.330;2022-07-17T06:05:46;13.40;1.00
3912;DHT22;1971;51.778;10.330;2022-07-17T06:08:28;13.50;1.00
3912;DHT22;1971;51.778;10.330;2022-07-17T06:11:07;13.50;1.00
3912;DHT22;1971;51.778;10.330;2022-07-17T06:13:49;13.50;1.00
3912;DHT22;1971;51.778;10.330;2022-07-17T06:16:26;13.50;1.00
3912;DHT22;1971;51.778;10.330;2022-07-17T06:19:08;13.40;1.00
3912;DHT22;1971;51.778;10.330;2022-07-17T06:21:44;13.40;1.00
3912;DHT22;1971;51.778;10.330;2022-07-17T06:24:20;13.70;1.00
3912;DHT22;1971;51.778;10.330;2022-07-17T06:27:05;14.00;1.00
3912;DHT22;1971;51.778;10.330;2022-07-17T06:29:41;14.30;1.00
3912;DHT22;1971;51.778;10.330;2022-07-17T06:32:23;14.50;1.00
3912;DHT22;1971;51.778;10.330;2022-07-17T06:34:59;14.40;1.00
3912;DHT22;1971;51.778;10.330;2022-07-17T06:37:41;14.70;1.00
3912;DHT22;1971;51.778;10.330;2022-07-17T06:40:17;14.80;1.00
3912;DHT22;1971;51.778;10.330;2022-07-17T06:43:02;14.60;1.00
3912;DHT22;1971;51.778;10.330;2022-07-17T06:45:39;14.50;1.00
3912;DHT22;1971;51.778;10.330;2022-07-17T06:48:21;14.00;1.00
3912;DHT22;1971;51.778;10.330;2022-07-17T06:50:58;14.20;1.00
3912;DHT22;1971;51.778;10.330;2022-07-17T06:53:40;14.40;1.00
3912;DHT22;1971;51.778;10.330;2022-07-17T06:56:16;14.50;1.00
3912;DHT22;1971;51.778;10.330;2022-07-17T06:59:01;14.20;1.00
3912;DHT22;1971;51.778;10.330;2022-07-17T07:01:40;14.10;1.00
3912;DHT22;1971;51.778;10.330;2022-07-17T07:04:22;14.30;1.00
3912;DHT22;1971;51.778;10.330;2022-07-17T07:06:59;14.50;1.00
3912;DHT22;1971;51.778;10.330;2022-07-17T07:09:35;14.50;1.00
3912;DHT22;1971;51.778;10.330;2022-07-17T07:12:17;14.30;1.00
3912;DHT22;1971;51.778;10.330;2022-07-17T07:14:56;14.30;1.00
3912;DHT22;1971;51.778;10.330;2022-07-17T07:17:38;14.40;1.00
3912;DHT22;1971;51.778;10.330;2022-07-17T07:20:14;14.70;1.00
3912;DHT22;1971;51.778;10.330;2022-07-17T07:22:56;14.80;1.00
3912;DHT22;1971;51.778;10.330;2022-07-17T07:25:39;15.00;1.00
3912;DHT22;1971;51.778;10.330;2022-07-17T07:28:22;14.90;1.00
3912;DHT22;1971;51.778;10.330;2022-07-17T07:31:01;15.20;1.00
3912;DHT22;1971;51.778;10.330;2022-07-17T07:33:43;15.30;1.00
3912;DHT22;1971;51.778;10.330;2022-07-17T07:36:20;15.10;1.00
3912;DHT22;1971;51.778;10.330;2022-07-17T07:39:02;15.20;1.00
3912;DHT22;1971;51.778;10.330;2022-07-17T07:41:39;15.40;1.00
3912;DHT22;1971;51.778;10.330;2022-07-17T07:44:21;15.40;1.00
3912;DHT22;1971;51.778;10.330;2022-07-17T07:47:07;15.70;1.00
3912;DHT22;1971;51.778;10.330;2022-07-17T07:49:43;15.50;1.00
3912;DHT22;1971;51.778;10.330;2022-07-17T07:52:28;15.30;1.00
3912;DHT22;1971;51.778;10.330;2022-07-17T07:55:05;15.40;1.00
3912;DHT22;1971;51.778;10.330;2022-07-17T07:57:47;15.80;1.00
3912;DHT22;1971;51.778;10.330;2022-07-17T08:00:24;16.10;1.00
3912;DHT22;1971;51.778;10.330;2022-07-17T08:03:09;15.50;1.00
3912;DHT22;1971;51.778;10.330;2022-07-17T08:05:45;15.40;1.00
3912;DHT22;1971;51.778;10.330;2022-07-17T08:08:27;15.10;1.00
3912;DHT22;1971;51.778;10.330;2022-07-17T08:11:12;15.30;1.00
3912;DHT22;1971;51.778;10.330;2022-07-17T08:13:54;15.60;1.00
3912;DHT22;1971;51.778;10.330;2022-07-17T08:16:39;15.70;1.00
3912;DHT22;1971;51.778;10.330;2022-07-17T08:19:24;15.70;1.00
3912;DHT22;1971;51.778;10.330;2022-07-17T08:22:00;15.70;1.00
3912;DHT22;1971;51.778;10.330;2022-07-17T08:24:42;16.00;1.00
3912;DHT22;1971;51.778;10.330;2022-07-17T08:27:18;16.10;1.00
3912;DHT22;1971;51.778;10.330;2022-07-17T08:29:55;16.10;1.00
3912;DHT22;1971;51.778;10.330;2022-07-17T08:32:38;16.30;99.90
3912;DHT22;1971;51.778;10.330;2022-07-17T08:35:17;16.40;99.90
3912;DHT22;1971;51.778;10.330;2022-07-17T08:37:59;16.90;99.90
3912;DHT22;1971;51.778;10.330;2022-07-17T08:40:37;16.80;99.90
3912;DHT22;1971;51.778;10.330;2022-07-17T08:43:22;16.50;99.90
3912;DHT22;1971;51.778;10.330;2022-07-17T08:45:59;16.40;99.90
3912;DHT22;1971;51.778;10.330;2022-07-17T08:48:42;16.10;99.90
3912;DHT22;1971;51.778;10.330;2022-07-17T08:51:24;16.10;99.90
3912;DHT22;1971;51.778;10.330;2022-07-17T08:54:06;16.70;99.90
3912;DHT22;1971;51.778;10.330;2022-07-17T08:56:42;16.80;99.90
3912;DHT22;1971;51.778;10.330;2022-07-17T08:59:24;17.40;99.90
3912;DHT22;1971;51.778;10.330;2022-07-17T09:02:00;17.10;99.90
3912;DHT22;1971;51.778;10.330;2022-07-17T09:04:42;17.40;99.90
3912;DHT22;1971;51.778;10.330;2022-07-17T09:07:31;17.70;99.90
3912;DHT22;1971;51.778;10.330;2022-07-17T09:10:13;17.60;99.90
3912;DHT22;1971;51.778;10.330;2022-07-17T09:12:50;17.70;99.90
3912;DHT22;1971;51.778;10.330;2022-07-17T09:15:26;17.40;99.90
3912;DHT22;1971;51.778;10.330;2022-07-17T09:18:08;17.20;99.90
3912;DHT22;1971;51.778;10.330;2022-07-17T09:20:46;17.70;99.90
3912;DHT22;1971;51.778;10.330;2022-07-17T09:23:31;17.70;99.90
3912;DHT22;1971;51.778;10.330;2022-07-17T09:26:09;18.20;99.90
3912;DHT22;1971;51.778;10.330;2022-07-17T09:28:51;18.40;99.90
3912;DHT22;1971;51.778;10.330;2022-07-17T09:31:29;17.90;99.90
3912;DHT22;1971;51.778;10.330;2022-07-17T09:34:16;18.10;99.90
3912;DHT22;1971;51.778;10.330;2022-07-17T09:36:59;18.50;99.90
3912;DHT22;1971;51.778;10.330;2022-07-17T09:39:44;18.60;99.90
3912;DHT22;1971;51.778;10.330;2022-07-17T09:42:24;18.50;99.90
3912;DHT22;1971;51.778;10.330;2022-07-17T09:45:09;18.20;99.90
3912;DHT22;1971;51.778;10.330;2022-07-17T09:47:46;18.20;99.90
3912;DHT22;1971;51.778;10.330;2022-07-17T09:50:29;18.30;99.90
3912;DHT22;1971;51.778;10.330;2022-07-17T09:53:07;18.00;99.90
3912;DHT22;1971;51.778;10.330;2022-07-17T09:55:47;17.70;99.90
3912;DHT22;1971;51.778;10.330;2022-07-17T09:58:30;18.10;99.90
3912;DHT22;1971;51.778;10.330;2022-07-17T10:01:08;18.40;99.90
3912;DHT22;1971;51.778;10.330;2022-07-17T10:03:51;19.10;99.90
3912;DHT22;1971;51.778;10.330;2022-07-17T10:06:29;19.30;99.90
3912;DHT22;1971;51.778;10.330;2022-07-17T10:09:11;19.30;99.90
3912;DHT22;1971;51.778;10.330;2022-07-17T10:11:51;19.40;99.90
3912;DHT22;1971;51.778;10.330;2022-07-17T10:14:34;19.60;99.90
3912;DHT22;1971;51.778;10.330;2022-07-17T10:17:20;19.50;99.90
3912;DHT22;1971;51.778;10.330;2022-07-17T10:20:03;19.00;99.90
3912;DHT22;1971;51.778;10.330;2022-07-17T10:22:43;19.30;99.90
3912;DHT22;1971;51.778;10.330;2022-07-17T10:25:25;19.70;99.90
3912;DHT22;1971;51.778;10.330;2022-07-17T10:28:05;19.90;99.90
3912;DHT22;1971;51.778;10.330;2022-07-17T10:30:42;20.00;99.90
3912;DHT22;1971;51.778;10.330;2022-07-17T10:33:25;19.90;99.90
3912;DHT22;1971;51.778;10.330;2022-07-17T10:36:01;19.60;99.90
3912;DHT22;1971;51.778;10.330;2022-07-17T10:38:43;19.80;99.90
3912;DHT22;1971;51.778;10.330;2022-07-17T10:41:20;19.90;99.90
3912;DHT22;1971;51.778;10.330;2022-07-17T10:44:05;20.30;99.90
3912;DHT22;1971;51.778;10.330;2022-07-17T10:46:41;20.40;99.90
3912;DHT22;1971;51.778;10.330;2022-07-17T10:49:24;20.50;99.90
3912;DHT22;1971;51.778;10.330;2022-07-17T10:52:00;20.50;99.90
3912;DHT22;1971;51.778;10.330;2022-07-17T10:54:42;20.80;99.90
3912;DHT22;1971;51.778;10.330;2022-07-17T10:57:18;20.90;99.90
3912;DHT22;1971;51.778;10.330;2022-07-17T11:00:04;20.90;99.90
3912;DHT22;1971;51.778;10.330;2022-07-17T11:02:40;21.10;99.90
3912;DHT22;1971;51.778;10.330;2022-07-17T11:05:22;20.60;99.90
3912;DHT22;1971;51.778;10.330;2022-07-17T11:07:59;20.80;99.90
3912;DHT22;1971;51.778;10.330;2022-07-17T11:10:42;20.70;99.90
3912;DHT22;1971;51.778;10.330;2022-07-17T11:13:18;20.90;99.90
3912;DHT22;1971;51.778;10.330;2022-07-17T11:15:57;21.10;99.90
3912;DHT22;1971;51.778;10.330;2022-07-17T11:18:46;21.30;99.90
3912;DHT22;1971;51.778;10.330;2022-07-17T11:21:23;21.20;99.90
3912;DHT22;1971;51.778;10.330;2022-07-17T11:24:05;21.60;99.90
3912;DHT22;1971;51.778;10.330;2022-07-17T11:26:42;22.10;99.90
3912;DHT22;1971;51.778;10.330;2022-07-17T11:29:24;21.50;99.90
3912;DHT22;1971;51.778;10.330;2022-07-17T11:32:04;20.50;99.90
3912;DHT22;1971;51.778;10.330;2022-07-17T11:34:46;20.50;99.90
3912;DHT22;1971;51.778;10.330;2022-07-17T11:37:25;20.80;99.90
3912;DHT22;1971;51.778;10.330;2022-07-17T11:40:10;21.20;99.90
3912;DHT22;1971;51.778;10.330;2022-07-17T11:42:46;21.70;99.90
3912;DHT22;1971;51.778;10.330;2022-07-17T11:45:28;21.80;99.90
3912;DHT22;1971;51.778;10.330;2022-07-17T11:48:07;21.90;99.90
3912;DHT22;1971;51.778;10.330;2022-07-17T11:50:53;22.10;99.90
3912;DHT22;1971;51.778;10.330;2022-07-17T11:53:33;22.10;99.90
3912;DHT22;1971;51.778;10.330;2022-07-17T11:56:21;21.90;99.90
3912;DHT22;1971;51.778;10.330;2022-07-17T11:59:03;22.10;99.90
3912;DHT22;1971;51.778;10.330;2022-07-17T12:01:42;21.10;99.90
3912;DHT22;1971;51.778;10.330;2022-07-17T12:04:27;21.60;99.90
3912;DHT22;1971;51.778;10.330;2022-07-17T12:07:04;21.90;99.90
3912;DHT22;1971;51.778;10.330;2022-07-17T12:09:45;21.90;99.90
3912;DHT22;1971;51.778;10.330;2022-07-17T12:12:23;22.20;99.90
3912;DHT22;1971;51.778;10.330;2022-07-17T12:15:06;22.40;99.90
3912;DHT22;1971;51.778;10.330;2022-07-17T12:17:43;22.40;99.90
3912;DHT22;1971;51.778;10.330;2022-07-17T12:20:40;22.80;99.90
3912;DHT22;1971;51.778;10.330;2022-07-17T12:23:26;23.00;99.90
3912;DHT22;1971;51.778;10.330;2022-07-17T12:26:04;23.10;99.90
3912;DHT22;1971;51.778;10.330;2022-07-17T12:28:46;23.30;99.90
3912;DHT22;1971;51.778;10.330;2022-07-17T12:31:22;22.70;99.90
3912;DHT22;1971;51.778;10.330;2022-07-17T12:34:05;22.30;99.90
3912;DHT22;1971;51.778;10.330;2022-07-17T12:36:45;21.90;99.90
3912;DHT22;1971;51.778;10.330;2022-07-17T12:39:28;21.40;99.90
3912;DHT22;1971;51.778;10.330;2022-07-17T12:42:06;21.10;99.90
3912;DHT22;1971;51.778;10.330;2022-07-17T12:44:48;21.50;99.90
3912;DHT22;1971;51.778;10.330;2022-07-17T12:47:25;21.50;99.90
3912;DHT22;1971;51.778;10.330;2022-07-17T12:50:08;22.00;99.90
3912;DHT22;1971;51.778;10.330;2022-07-17T12:52:48;22.70;99.90
3912;DHT22;1971;51.778;10.330;2022-07-17T12:55:30;22.80;99.90
3912;DHT22;1971;51.778;10.330;2022-07-17T12:58:07;22.60;99.90
3912;DHT22;1971;51.778;10.330;2022-07-17T13:00:49;22.70;99.90
3912;DHT22;1971;51.778;10.330;2022-07-17T13:03:26;22.70;99.90
3912;DHT22;1971;51.778;10.330;2022-07-17T13:06:08;22.90;99.90
3912;DHT22;1971;51.778;10.330;2022-07-17T13:08:47;22.80;99.90
3912;DHT22;1971;51.778;10.330;2022-07-17T13:11:29;22.70;99.90
3912;DHT22;1971;51.778;10.330;2022-07-17T13:14:06;23.00;99.90
3912;DHT22;1971;51.778;10.330;2022-07-17T13:16:45;23.20;99.90
3912;DHT22;1971;51.778;10.330;2022-07-17T13:19:27;23.20;99.90
3912;DHT22;1971;51.778;10.330;2022-07-17T13:22:03;22.70;99.90
3912;DHT22;1971;51.778;10.330;2022-07-17T13:24:48;22.80;99.90
3912;DHT22;1971;51.778;10.330;2022-07-17T13:27:24;22.60;99.90
3912;DHT22;1971;51.778;10.330;2022-07-17T13:30:08;22.60;99.90
3912;DHT22;1971;51.778;10.330;2022-07-17T13:32:44;23.20;99.90
3912;DHT22;1971;51.778;10.330;2022-07-17T13:35:27;23.00;99.90
3912;DHT22;1971;51.778;10.330;2022-07-17T13:38:05;23.10;99.90
3912;DHT22;1971;51.778;10.330;2022-07-17T13:40:51;22.60;99.90
3912;DHT22;1971;51.778;10.330;2022-07-17T13:43:27;23.10;99.90
3912;DHT22;1971;51.778;10.330;2022-07-17T13:46:16;22.60;99.90
3912;DHT22;1971;51.778;10.330;2022-07-17T13:48:52;23.00;99.90
3912;DHT22;1971;51.778;10.330;2022-07-17T13:51:35;23.30;99.90
3912;DHT22;1971;51.778;10.330;2022-07-17T13:54:13;23.60;99.90
3912;DHT22;1971;51.778;10.330;2022-07-17T13:56:53;23.80;99.90
3912;DHT22;1971;51.778;10.330;2022-07-17T13:59:35;23.60;99.90
3912;DHT22;1971;51.778;10.330;2022-07-17T14:02:11;22.60;99.90
3912;DHT22;1971;51.778;10.330;2022-07-17T14:04:54;23.20;99.90
3912;DHT22;1971;51.778;10.330;2022-07-17T14:07:32;23.20;99.90
3912;DHT22;1971;51.778;10.330;2022-07-17T14:10:14;23.30;99.90
3912;DHT22;1971;51.778;10.330;2022-07-17T14:12:56;23.40;99.90
3912;DHT22;1971;51.778;10.330;2022-07-17T14:15:32;23.60;99.90
3912;DHT22;1971;51.778;10.330;2022-07-17T14:18:09;23.00;99.90
3912;DHT22;1971;51.778;10.330;2022-07-17T14:20:51;23.10;99.90
3912;DHT22;1971;51.778;10.330;2022-07-17T14:26:53;22.70;99.90
3912;DHT22;1971;51.778;10.330;2022-07-17T14:29:32;22.80;99.90
3912;DHT22;1971;51.778;10.330;2022-07-17T14:32:08;22.80;99.90
3912;DHT22;1971;51.778;10.330;2022-07-17T14:34:50;22.70;99.90
3912;DHT22;1971;51.778;10.330;2022-07-17T14:37:26;22.00;99.90
3912;DHT22;1971;51.778;10.330;2022-07-17T14:40:10;21.80;99.90
3912;DHT22;1971;51.778;10.330;2022-07-17T14:42:46;22.20;99.90
3912;DHT22;1971;51.778;10.330;2022-07-17T14:45:31;22.50;99.90
3912;DHT22;1971;51.778;10.330;2022-07-17T14:48:07;22.60;99.90
3912;DHT22;1971;51.778;10.330;2022-07-17T14:50:49;22.90;99.90
3912;DHT22;1971;51.778;10.330;2022-07-17T14:53:26;22.70;99.90
3912;DHT22;1971;51.778;10.330;2022-07-17T14:56:08;22.90;99.90
3912;DHT22;1971;51.778;10.330;2022-07-17T14:58:44;23.00;99.90
3912;DHT22;1971;51.778;10.330;2022-07-17T15:01:29;22.90;99.90
3912;DHT22;1971;51.778;10.330;2022-07-17T15:04:05;22.90;99.90
3912;DHT22;1971;51.778;10.330;2022-07-17T15:06:47;23.40;99.90
3912;DHT22;1971;51.778;10.330;2022-07-17T15:09:23;23.40;99.90
3912;DHT22;1971;51.778;10.330;2022-07-17T15:12:05;23.80;99.90
3912;DHT22;1971;51.778;10.330;2022-07-17T15:14:42;23.70;99.90
3912;DHT22;1971;51.778;10.330;2022-07-17T15:17:22;23.50;99.90
3912;DHT22;1971;51.778;10.330;2022-07-17T15:20:05;23.20;99.90
3912;DHT22;1971;51.778;10.330;2022-07-17T15:22:41;23.50;99.90
3912;DHT22;1971;51.778;10.330;2022-07-17T15:25:23;23.60;99.90
3912;DHT22;1971;51.778;10.330;2022-07-17T15:27:59;23.10;99.90
3912;DHT22;1971;51.778;10.330;2022-07-17T15:30:41;23.30;99.90
3912;DHT22;1971;51.778;10.330;2022-07-17T15:33:20;23.40;99.90
3912;DHT22;1971;51.778;10.330;2022-07-17T15:36:03;23.50;99.90
3912;DHT22;1971;51.778;10.330;2022-07-17T15:38:40;23.60;99.90
3912;DHT22;1971;51.778;10.330;2022-07-17T15:41:22;23.90;99.90
3912;DHT22;1971;51.778;10.330;2022-07-17T15:43:58;24.20;99.90
3912;DHT22;1971;51.778;10.330;2022-07-17T15:46:40;24.00;99.90
3912;DHT22;1971;51.778;10.330;2022-07-17T15:49:19;23.80;99.90
3912;DHT22;1971;51.778;10.330;2022-07-17T15:52:02;24.20;99.90
3912;DHT22;1971;51.778;10.330;2022-07-17T15:54:38;24.70;99.90
3912;DHT22;1971;51.778;10.330;2022-07-17T15:57:20;24.70;99.90
3912;DHT22;1971;51.778;10.330;2022-07-17T15:59:57;24.60;99.90
3912;DHT22;1971;51.778;10.330;2022-07-17T16:02:33;24.80;99.90
3912;DHT22;1971;51.778;10.330;2022-07-17T16:05:18;25.10;99.90
3912;DHT22;1971;51.778;10.330;2022-07-17T16:07:54;25.00;99.90
3912;DHT22;1971;51.778;10.330;2022-07-17T16:10:38;25.30;99.90
3912;DHT22;1971;51.778;10.330;2022-07-17T16:13:13;25.40;99.90
3912;DHT22;1971;51.778;10.330;2022-07-17T16:15:55;25.70;99.90
3912;DHT22;1971;51.778;10.330;2022-07-17T16:18:32;24.70;99.90
3912;DHT22;1971;51.778;10.330;2022-07-17T16:21:16;25.00;99.90
3912;DHT22;1971;51.778;10.330;2022-07-17T16:23:52;24.40;99.90
3912;DHT22;1971;51.778;10.330;2022-07-17T16:26:34;23.70;99.90
3912;DHT22;1971;51.778;10.330;2022-07-17T16:29:10;24.30;99.90
3912;DHT22;1971;51.778;10.330;2022-07-17T16:31:52;24.60;99.90
3912;DHT22;1971;51.778;10.330;2022-07-17T16:34:29;24.40;99.90
3912;DHT22;1971;51.778;10.330;2022-07-17T16:37:14;23.60;99.90
3912;DHT22;1971;51.778;10.330;2022-07-17T16:39:50;24.30;99.90
3912;DHT22;1971;51.778;10.330;2022-07-17T16:42:32;24.10;99.90
3912;DHT22;1971;51.778;10.330;2022-07-17T16:45:09;23.90;99.90
3912;DHT22;1971;51.778;10.330;2022-07-17T16:47:45;24.30;99.90
3912;DHT22;1971;51.778;10.330;2022-07-17T16:50:28;24.40;99.90
3912;DHT22;1971;51.778;10.330;2022-07-17T16:53:06;23.80;99.90
3912;DHT22;1971;51.778;10.330;2022-07-17T16:55:47;24.00;99.90
3912;DHT22;1971;51.778;10.330;2022-07-17T16:58:23;24.10;99.90
3912;DHT22;1971;51.778;10.330;2022-07-17T17:01:06;24.20;99.90
3912;DHT22;1971;51.778;10.330;2022-07-17T17:03:42;24.40;99.90
3912;DHT22;1971;51.778;10.330;2022-07-17T17:06:25;24.30;99.90
3912;DHT22;1971;51.778;10.330;2022-07-17T17:09:05;23.20;99.90
3912;DHT22;1971;51.778;10.330;2022-07-17T17:11:47;23.30;99.90
3912;DHT22;1971;51.778;10.330;2022-07-17T17:14:24;23.30;99.90
3912;DHT22;1971;51.778;10.330;2022-07-17T17:17:05;23.50;99.90
3912;DHT22;1971;51.778;10.330;2022-07-17T17:19:42;24.40;99.90
3912;DHT22;1971;51.778;10.330;2022-07-17T17:22:23;24.80;99.90